sensor_id;sensor_type;location;lat;lon;timestamp;P1;durP1;ratioP1;P2;durP2;ratioP2
71496;SDS011;59317;53.218;5.730;2022-08-01T00:02:04;7.65;;;3.00;;
71496;SDS011;59317;53.218;5.730;2022-08-01T00:04:30;6.57;;;2.38;;
71496;SDS011;59317;53.218;5.730;2022-08-01T00:06:58;8.68;;;2.72;;
71496;SDS011;59317;53.218;5.730;2022-08-01T00:09:25;7.65;;;2.90;;
71496;SDS011;59317;53.218;5.730;2022-08-01T00:11:51;11.25;;;3.20;;
71496;SDS011;59317;53.218;5.730;2022-08-01T00:14:25;9.77;;;3.03;;
71496;SDS011;59317;53.218;5.730;2022-08-01T00:16:51;9.50;;;3.60;;
71496;SDS011;59317;53.218;5.730;2022-08-01T00:19:17;9.88;;;3.00;;
71496;SDS011;59317;53.218;5.730;2022-08-01T00:21:43;11.60;;;3.45;;
71496;SDS011;59317;53.218;5.730;2022-08-01T00:24:09;8.32;;;2.90;;
71496;SDS011;59317;53.218;5.730;2022-08-01T00:26:35;8.38;;;3.03;;
71496;SDS011;59317;53.218;5.730;2022-08-01T00:29:01;9.93;;;3.25;;
71496;SDS011;59317;53.218;5.730;2022-08-01T00:31:27;10.90;;;3.42;;
71496;SDS011;59317;53.218;5.730;2022-08-01T00:33:53;8.77;;;2.53;;
71496;SDS011;59317;53.218;5.730;2022-08-01T00:36:21;8.73;;;2.90;;
71496;SDS011;59317;53.218;5.730;2022-08-01T00:38:47;7.03;;;2.08;;
71496;SDS011;59317;53.218;5.730;2022-08-01T00:41:16;6.75;;;1.80;;
71496;SDS011;59317;53.218;5.730;2022-08-01T00:43:42;9.43;;;2.47;;
71496;SDS011;59317;53.218;5.730;2022-08-01T00:46:08;8.13;;;1.90;;
71496;SDS011;59317;53.218;5.730;2022-08-01T00:48:34;10.32;;;2.40;;
71496;SDS011;59317;53.218;5.730;2022-08-01T00:51:01;9.57;;;2.58;;
71496;SDS011;59317;53.218;5.730;2022-08-01T00:53:27;11.02;;;2.40;;
71496;SDS011;59317;53.218;5.730;2022-08-01T00:55:53;7.88;;;2.17;;
71496;SDS011;59317;53.218;5.730;2022-08-01T00:58:19;8.65;;;2.17;;
71496;SDS011;59317;53.218;5.730;2022-08-01T01:00:45;7.32;;;2.03;;
71496;SDS011;59317;53.218;5.730;2022-08-01T01:03:11;7.68;;;2.38;;
71496;SDS011;59317;53.218;5.730;2022-08-01T01:05:40;9.85;;;2.30;;
71496;SDS011;59317;53.218;5.730;2022-08-01T01:08:27;7.28;;;2.10;;
71496;SDS011;59317;53.218;5.730;2022-08-01T01:11:03;6.95;;;2.20;;
71496;SDS011;59317;53.218;5.730;2022-08-01T01:13:35;8.10;;;2.25;;
71496;SDS011;59317;53.218;5.730;2022-08-01T01:16:05;7.68;;;2.15;;
71496;SDS011;59317;53.218;5.730;2022-08-01T01:18:38;7.82;;;1.80;;
71496;SDS011;59317;53.218;5.730;2022-08-01T01:21:13;9.32;;;2.22;;
71496;SDS011;59317;53.218;5.730;2022-08-01T01:23:57;12.32;;;2.78;;
71496;SDS011;59317;53.218;5.730;2022-08-01T01:29:27;11.35;;;2.35;;
71496;SDS011;59317;53.218;5.730;2022-08-01T01:34:20;16.50;;;3.60;;
71496;SDS011;59317;53.218;5.730;2022-08-01T01:36:47;12.07;;;3.38;;
71496;SDS011;59317;53.218;5.730;2022-08-01T01:39:14;12.98;;;2.70;;
71496;SDS011;59317;53.218;5.730;2022-08-01T01:41:41;18.52;;;3.78;;
71496;SDS011;59317;53.218;5.730;2022-08-01T01:44:11;16.77;;;3.30;;
71496;SDS011;59317;53.218;5.730;2022-08-01T01:46:38;15.75;;;3.30;;
71496;SDS011;59317;53.218;5.730;2022-08-01T01:49:05;18.25;;;3.00;;
71496;SDS011;59317;53.218;5.730;2022-08-01T01:51:35;17.02;;;2.90;;
71496;SDS011;59317;53.218;5.730;2022-08-01T01:54:01;15.20;;;2.95;;
71496;SDS011;59317;53.218;5.730;2022-08-01T01:56:28;15.65;;;2.83;;
71496;SDS011;59317;53.218;5.730;2022-08-01T01:59:04;13.60;;;3.03;;
71496;SDS011;59317;53.218;5.730;2022-08-01T02:01:31;17.03;;;3.00;;
71496;SDS011;59317;53.218;5.730;2022-08-01T02:03:58;12.65;;;2.80;;
71496;SDS011;59317;53.218;5.730;2022-08-01T02:06:25;10.27;;;2.28;;
71496;SDS011;59317;53.218;5.730;2022-08-01T02:08:57;12.05;;;2.80;;
71496;SDS011;59317;53.218;5.730;2022-08-01T02:11:25;16.20;;;2.90;;
71496;SDS011;59317;53.218;5.730;2022-08-01T02:13:57;8.67;;;1.93;;
71496;SDS011;59317;53.218;5.730;2022-08-01T02:16:28;10.20;;;2.47;;
71496;SDS011;59317;53.218;5.730;2022-08-01T02:19:00;12.93;;;2.55;;
71496;SDS011;59317;53.218;5.730;2022-08-01T02:21:28;12.40;;;3.05;;
71496;SDS011;59317;53.218;5.730;2022-08-01T02:23:55;11.53;;;2.50;;
71496;SDS011;59317;53.218;5.730;2022-08-01T02:26:25;11.67;;;2.83;;
71496;SDS011;59317;53.218;5.730;2022-08-01T02:29:02;10.55;;;2.38;;
71496;SDS011;59317;53.218;5.730;2022-08-01T02:31:31;11.93;;;2.58;;
71496;SDS011;59317;53.218;5.730;2022-08-01T02:34:06;8.15;;;2.17;;
71496;SDS011;59317;53.218;5.730;2022-08-01T02:36:33;11.32;;;2.00;;
71496;SDS011;59317;53.218;5.730;2022-08-01T02:39:03;9.02;;;2.45;;
71496;SDS011;59317;53.218;5.730;2022-08-01T02:41:33;10.88;;;2.10;;
71496;SDS011;59317;53.218;5.730;2022-08-01T02:44:02;12.97;;;2.70;;
71496;SDS011;59317;53.218;5.730;2022-08-01T02:46:33;14.10;;;2.75;;
71496;SDS011;59317;53.218;5.730;2022-08-01T02:49:00;11.90;;;2.63;;
71496;SDS011;59317;53.218;5.730;2022-08-01T02:51:28;16.02;;;2.33;;
71496;SDS011;59317;53.218;5.730;2022-08-01T02:53:56;10.20;;;2.05;;
71496;SDS011;59317;53.218;5.730;2022-08-01T02:56:22;12.50;;;2.40;;
71496;SDS011;59317;53.218;5.730;2022-08-01T02:58:49;13.13;;;2.38;;
71496;SDS011;59317;53.218;5.730;2022-08-01T03:01:16;12.38;;;2.55;;
71496;SDS011;59317;53.218;5.730;2022-08-01T03:03:43;10.95;;;2.33;;
71496;SDS011;59317;53.218;5.730;2022-08-01T03:06:09;10.63;;;2.58;;
71496;SDS011;59317;53.218;5.730;2022-08-01T03:08:35;11.32;;;2.80;;
71496;SDS011;59317;53.218;5.730;2022-08-01T03:11:03;11.38;;;2.00;;
71496;SDS011;59317;53.218;5.730;2022-08-01T03:13:29;14.13;;;2.17;;
71496;SDS011;59317;53.218;5.730;2022-08-01T03:15:56;14.55;;;2.42;;
71496;SDS011;59317;53.218;5.730;2022-08-01T03:18:23;15.43;;;2.40;;
71496;SDS011;59317;53.218;5.730;2022-08-01T03:20:53;14.45;;;2.50;;
71496;SDS011;59317;53.218;5.730;2022-08-01T03:23:20;18.63;;;2.90;;
71496;SDS011;59317;53.218;5.730;2022-08-01T03:25:49;17.80;;;2.50;;
71496;SDS011;59317;53.218;5.730;2022-08-01T03:28:16;15.50;;;2.57;;
71496;SDS011;59317;53.218;5.730;2022-08-01T03:30:44;16.02;;;2.33;;
71496;SDS011;59317;53.218;5.730;2022-08-01T03:33:11;13.80;;;2.30;;
71496;SDS011;59317;53.218;5.730;2022-08-01T03:35:47;18.15;;;2.95;;
71496;SDS011;59317;53.218;5.730;2022-08-01T03:38:15;13.70;;;2.53;;
71496;SDS011;59317;53.218;5.730;2022-08-01T03:43:37;18.85;;;3.00;;
71496;SDS011;59317;53.218;5.730;2022-08-01T03:46:07;16.73;;;2.67;;
71496;SDS011;59317;53.218;5.730;2022-08-01T03:48:35;18.15;;;2.75;;
71496;SDS011;59317;53.218;5.730;2022-08-01T03:51:02;16.50;;;2.53;;
71496;SDS011;59317;53.218;5.730;2022-08-01T03:53:30;15.95;;;2.03;;
71496;SDS011;59317;53.218;5.730;2022-08-01T03:55:56;15.40;;;2.50;;
71496;SDS011;59317;53.218;5.730;2022-08-01T03:58:24;15.93;;;2.53;;
71496;SDS011;59317;53.218;5.730;2022-08-01T04:00:50;15.25;;;2.55;;
71496;SDS011;59317;53.218;5.730;2022-08-01T04:03:17;13.20;;;2.40;;
71496;SDS011;59317;53.218;5.730;2022-08-01T04:05:43;16.85;;;2.35;;
71496;SDS011;59317;53.218;5.730;2022-08-01T04:08:15;12.23;;;2.10;;
71496;SDS011;59317;53.218;5.730;2022-08-01T04:10:41;20.60;;;2.65;;
71496;SDS011;59317;53.218;5.730;2022-08-01T04:13:07;15.90;;;2.55;;
71496;SDS011;59317;53.218;5.730;2022-08-01T04:15:34;16.45;;;2.55;;
71496;SDS011;59317;53.218;5.730;2022-08-01T04:18:00;14.68;;;2.22;;
71496;SDS011;59317;53.218;5.730;2022-08-01T04:20:26;15.15;;;2.58;;
71496;SDS011;59317;53.218;5.730;2022-08-01T04:22:52;17.63;;;3.10;;
71496;SDS011;59317;53.218;5.730;2022-08-01T04:25:20;18.30;;;2.83;;
71496;SDS011;59317;53.218;5.730;2022-08-01T04:27:47;20.05;;;2.78;;
71496;SDS011;59317;53.218;5.730;2022-08-01T04:30:14;16.92;;;2.90;;
71496;SDS011;59317;53.218;5.730;2022-08-01T04:32:41;16.20;;;2.50;;
71496;SDS011;59317;53.218;5.730;2022-08-01T04:35:09;17.23;;;2.80;;
71496;SDS011;59317;53.218;5.730;2022-08-01T04:37:37;16.15;;;2.70;;
71496;SDS011;59317;53.218;5.730;2022-08-01T04:40:05;16.42;;;2.70;;
71496;SDS011;59317;53.218;5.730;2022-08-01T04:42:32;17.52;;;3.05;;
71496;SDS011;59317;53.218;5.730;2022-08-01T04:44:58;15.65;;;2.67;;
71496;SDS011;59317;53.218;5.730;2022-08-01T04:47:25;15.80;;;2.60;;
71496;SDS011;59317;53.218;5.730;2022-08-01T04:49:51;13.45;;;2.47;;
71496;SDS011;59317;53.218;5.730;2022-08-01T04:52:17;16.27;;;2.83;;
71496;SDS011;59317;53.218;5.730;2022-08-01T04:54:43;17.83;;;2.40;;
71496;SDS011;59317;53.218;5.730;2022-08-01T04:57:11;14.23;;;2.20;;
71496;SDS011;59317;53.218;5.730;2022-08-01T04:59:38;14.48;;;2.33;;
71496;SDS011;59317;53.218;5.730;2022-08-01T05:04:33;16.55;;;2.33;;
71496;SDS011;59317;53.218;5.730;2022-08-01T05:06:59;11.97;;;2.10;;
71496;SDS011;59317;53.218;5.730;2022-08-01T05:09:26;16.10;;;2.60;;
71496;SDS011;59317;53.218;5.730;2022-08-01T05:11:51;16.20;;;2.60;;
71496;SDS011;59317;53.218;5.730;2022-08-01T05:14:18;18.05;;;2.47;;
71496;SDS011;59317;53.218;5.730;2022-08-01T05:16:44;17.38;;;2.60;;
71496;SDS011;59317;53.218;5.730;2022-08-01T05:19:10;16.57;;;2.30;;
71496;SDS011;59317;53.218;5.730;2022-08-01T05:21:36;16.42;;;2.80;;
71496;SDS011;59317;53.218;5.730;2022-08-01T05:24:03;13.83;;;2.37;;
71496;SDS011;59317;53.218;5.730;2022-08-01T05:26:29;17.30;;;3.00;;
71496;SDS011;59317;53.218;5.730;2022-08-01T05:28:55;16.48;;;2.53;;
71496;SDS011;59317;53.218;5.730;2022-08-01T05:31:21;13.02;;;2.03;;
71496;SDS011;59317;53.218;5.730;2022-08-01T05:33:47;14.65;;;2.55;;
71496;SDS011;59317;53.218;5.730;2022-08-01T05:36:13;11.15;;;2.42;;
71496;SDS011;59317;53.218;5.730;2022-08-01T05:38:39;15.27;;;2.50;;
71496;SDS011;59317;53.218;5.730;2022-08-01T05:41:05;13.80;;;2.47;;
71496;SDS011;59317;53.218;5.730;2022-08-01T05:43:31;13.88;;;2.40;;
71496;SDS011;59317;53.218;5.730;2022-08-01T05:45:57;18.52;;;2.90;;
71496;SDS011;59317;53.218;5.730;2022-08-01T05:48:23;12.67;;;2.40;;
71496;SDS011;59317;53.218;5.730;2022-08-01T05:50:49;13.60;;;2.50;;
71496;SDS011;59317;53.218;5.730;2022-08-01T05:53:16;17.67;;;2.70;;
71496;SDS011;59317;53.218;5.730;2022-08-01T05:55:42;15.32;;;2.05;;
71496;SDS011;59317;53.218;5.730;2022-08-01T05:58:08;12.07;;;1.73;;
71496;SDS011;59317;53.218;5.730;2022-08-01T06:00:34;15.07;;;2.55;;
71496;SDS011;59317;53.218;5.730;2022-08-01T06:03:00;15.73;;;2.40;;
71496;SDS011;59317;53.218;5.730;2022-08-01T06:05:26;10.93;;;1.97;;
71496;SDS011;59317;53.218;5.730;2022-08-01T06:07:52;14.00;;;2.27;;
71496;SDS011;59317;53.218;5.730;2022-08-01T06:10:18;11.40;;;1.90;;
71496;SDS011;59317;53.218;5.730;2022-08-01T06:12:44;17.63;;;2.28;;
71496;SDS011;59317;53.218;5.730;2022-08-01T06:15:11;10.77;;;1.70;;
71496;SDS011;59317;53.218;5.730;2022-08-01T06:17:37;13.27;;;1.73;;
71496;SDS011;59317;53.218;5.730;2022-08-01T06:20:04;13.60;;;1.90;;
71496;SDS011;59317;53.218;5.730;2022-08-01T06:22:31;11.77;;;1.73;;
71496;SDS011;59317;53.218;5.730;2022-08-01T06:24:57;12.38;;;1.90;;
71496;SDS011;59317;53.218;5.730;2022-08-01T06:27:23;12.93;;;1.97;;
71496;SDS011;59317;53.218;5.730;2022-08-01T06:29:52;14.53;;;1.70;;
71496;SDS011;59317;53.218;5.730;2022-08-01T06:32:18;10.47;;;1.43;;
71496;SDS011;59317;53.218;5.730;2022-08-01T06:34:44;9.77;;;1.58;;
71496;SDS011;59317;53.218;5.730;2022-08-01T06:37:10;9.77;;;1.42;;
71496;SDS011;59317;53.218;5.730;2022-08-01T06:39:38;10.95;;;1.80;;
71496;SDS011;59317;53.218;5.730;2022-08-01T06:42:04;9.63;;;1.83;;
71496;SDS011;59317;53.218;5.730;2022-08-01T06:44:30;11.25;;;1.60;;
71496;SDS011;59317;53.218;5.730;2022-08-01T06:46:56;8.70;;;1.00;;
71496;SDS011;59317;53.218;5.730;2022-08-01T06:49:23;8.30;;;1.23;;
71496;SDS011;59317;53.218;5.730;2022-08-01T06:51:49;10.73;;;1.67;;
71496;SDS011;59317;53.218;5.730;2022-08-01T06:54:15;9.25;;;1.55;;
71496;SDS011;59317;53.218;5.730;2022-08-01T06:56:41;12.65;;;1.50;;
71496;SDS011;59317;53.218;5.730;2022-08-01T06:59:07;11.50;;;1.50;;
71496;SDS011;59317;53.218;5.730;2022-08-01T07:01:33;6.38;;;1.00;;
71496;SDS011;59317;53.218;5.730;2022-08-01T07:03:59;11.90;;;1.75;;
71496;SDS011;59317;53.218;5.730;2022-08-01T07:06:25;9.35;;;1.60;;
71496;SDS011;59317;53.218;5.730;2022-08-01T07:08:52;10.60;;;1.48;;
71496;SDS011;59317;53.218;5.730;2022-08-01T07:11:18;10.18;;;1.60;;
71496;SDS011;59317;53.218;5.730;2022-08-01T07:13:45;12.27;;;1.90;;
71496;SDS011;59317;53.218;5.730;2022-08-01T07:16:12;11.35;;;1.58;;
71496;SDS011;59317;53.218;5.730;2022-08-01T07:18:38;9.85;;;1.30;;
71496;SDS011;59317;53.218;5.730;2022-08-01T07:21:04;8.05;;;1.25;;
71496;SDS011;59317;53.218;5.730;2022-08-01T07:23:30;9.07;;;1.40;;
71496;SDS011;59317;53.218;5.730;2022-08-01T07:25:56;7.45;;;1.30;;
71496;SDS011;59317;53.218;5.730;2022-08-01T07:28:22;12.52;;;1.73;;
71496;SDS011;59317;53.218;5.730;2022-08-01T07:30:48;7.70;;;1.25;;
71496;SDS011;59317;53.218;5.730;2022-08-01T07:33:14;8.68;;;1.23;;
71496;SDS011;59317;53.218;5.730;2022-08-01T07:35:40;7.35;;;1.35;;
71496;SDS011;59317;53.218;5.730;2022-08-01T07:38:06;7.75;;;1.48;;
71496;SDS011;59317;53.218;5.730;2022-08-01T07:40:32;7.05;;;0.98;;
71496;SDS011;59317;53.218;5.730;2022-08-01T07:42:58;8.18;;;1.40;;
71496;SDS011;59317;53.218;5.730;2022-08-01T07:45:24;8.65;;;1.60;;
71496;SDS011;59317;53.218;5.730;2022-08-01T07:47:51;8.10;;;1.40;;
71496;SDS011;59317;53.218;5.730;2022-08-01T07:50:17;9.55;;;1.30;;
71496;SDS011;59317;53.218;5.730;2022-08-01T07:52:43;7.80;;;1.40;;
71496;SDS011;59317;53.218;5.730;2022-08-01T07:55:10;7.07;;;1.20;;
71496;SDS011;59317;53.218;5.730;2022-08-01T07:57:37;7.90;;;1.30;;
71496;SDS011;59317;53.218;5.730;2022-08-01T08:00:03;10.85;;;1.60;;
71496;SDS011;59317;53.218;5.730;2022-08-01T08:02:30;9.32;;;1.48;;
71496;SDS011;59317;53.218;5.730;2022-08-01T08:04:55;10.88;;;1.67;;
71496;SDS011;59317;53.218;5.730;2022-08-01T08:07:21;6.60;;;1.02;;
71496;SDS011;59317;53.218;5.730;2022-08-01T08:09:47;8.60;;;1.42;;
71496;SDS011;59317;53.218;5.730;2022-08-01T08:12:13;8.50;;;1.48;;
71496;SDS011;59317;53.218;5.730;2022-08-01T08:14:39;10.80;;;1.50;;
71496;SDS011;59317;53.218;5.730;2022-08-01T08:17:05;7.90;;;1.10;;
71496;SDS011;59317;53.218;5.730;2022-08-01T08:19:32;7.63;;;1.27;;
71496;SDS011;59317;53.218;5.730;2022-08-01T08:21:59;7.23;;;1.03;;
71496;SDS011;59317;53.218;5.730;2022-08-01T08:24:25;8.67;;;1.30;;
71496;SDS011;59317;53.218;5.730;2022-08-01T08:26:55;8.02;;;1.00;;
71496;SDS011;59317;53.218;5.730;2022-08-01T08:29:22;8.55;;;1.17;;
71496;SDS011;59317;53.218;5.730;2022-08-01T08:31:48;6.82;;;1.17;;
71496;SDS011;59317;53.218;5.730;2022-08-01T08:34:15;9.25;;;1.40;;
71496;SDS011;59317;53.218;5.730;2022-08-01T08:36:41;10.73;;;1.38;;
71496;SDS011;59317;53.218;5.730;2022-08-01T08:39:07;6.33;;;0.93;;
71496;SDS011;59317;53.218;5.730;2022-08-01T08:41:34;10.97;;;1.40;;
71496;SDS011;59317;53.218;5.730;2022-08-01T08:44:00;5.70;;;0.93;;
71496;SDS011;59317;53.218;5.730;2022-08-01T08:46:27;7.30;;;1.05;;
71496;SDS011;59317;53.218;5.730;2022-08-01T08:48:54;8.00;;;1.17;;
71496;SDS011;59317;53.218;5.730;2022-08-01T08:51:21;9.80;;;1.25;;
71496;SDS011;59317;53.218;5.730;2022-08-01T08:53:49;7.93;;;1.20;;
71496;SDS011;59317;53.218;5.730;2022-08-01T08:56:17;8.38;;;1.23;;
71496;SDS011;59317;53.218;5.730;2022-08-01T08:58:44;6.43;;;1.00;;
71496;SDS011;59317;53.218;5.730;2022-08-01T09:01:10;8.63;;;1.30;;
71496;SDS011;59317;53.218;5.730;2022-08-01T09:03:37;6.40;;;0.73;;
71496;SDS011;59317;53.218;5.730;2022-08-01T09:06:03;6.68;;;1.10;;
71496;SDS011;59317;53.218;5.730;2022-08-01T09:08:29;6.80;;;1.02;;
71496;SDS011;59317;53.218;5.730;2022-08-01T09:10:55;10.23;;;1.40;;
71496;SDS011;59317;53.218;5.730;2022-08-01T09:13:21;7.90;;;1.05;;
71496;SDS011;59317;53.218;5.730;2022-08-01T09:15:49;8.63;;;1.00;;
71496;SDS011;59317;53.218;5.730;2022-08-01T09:20:51;7.25;;;1.10;;
71496;SDS011;59317;53.218;5.730;2022-08-01T09:26:04;6.07;;;0.77;;
71496;SDS011;59317;53.218;5.730;2022-08-01T09:28:30;6.05;;;0.85;;
71496;SDS011;59317;53.218;5.730;2022-08-01T09:30:57;9.00;;;1.20;;
71496;SDS011;59317;53.218;5.730;2022-08-01T09:33:23;7.03;;;0.90;;
71496;SDS011;59317;53.218;5.730;2022-08-01T09:35:55;7.80;;;1.10;;
71496;SDS011;59317;53.218;5.730;2022-08-01T09:38:23;9.20;;;1.10;;
71496;SDS011;59317;53.218;5.730;2022-08-01T09:40:54;6.75;;;0.98;;
71496;SDS011;59317;53.218;5.730;2022-08-01T09:43:23;8.93;;;1.13;;
71496;SDS011;59317;53.218;5.730;2022-08-01T09:45:49;7.05;;;0.73;;
71496;SDS011;59317;53.218;5.730;2022-08-01T09:48:15;8.80;;;1.20;;
71496;SDS011;59317;53.218;5.730;2022-08-01T09:50:42;7.03;;;0.90;;
71496;SDS011;59317;53.218;5.730;2022-08-01T09:53:09;8.48;;;1.27;;
71496;SDS011;59317;53.218;5.730;2022-08-01T09:55:35;7.22;;;0.88;;
71496;SDS011;59317;53.218;5.730;2022-08-01T09:58:01;7.60;;;1.00;;
71496;SDS011;59317;53.218;5.730;2022-08-01T10:00:29;8.00;;;1.20;;
71496;SDS011;59317;53.218;5.730;2022-08-01T10:02:55;5.60;;;0.73;;
71496;SDS011;59317;53.218;5.730;2022-08-01T10:05:30;7.27;;;1.10;;
71496;SDS011;59317;53.218;5.730;2022-08-01T10:08:00;7.93;;;1.17;;
71496;SDS011;59317;53.218;5.730;2022-08-01T10:10:28;6.55;;;0.80;;
71496;SDS011;59317;53.218;5.730;2022-08-01T10:12:54;6.95;;;1.00;;
71496;SDS011;59317;53.218;5.730;2022-08-01T10:15:20;7.82;;;0.82;;
71496;SDS011;59317;53.218;5.730;2022-08-01T10:17:51;6.57;;;0.98;;
71496;SDS011;59317;53.218;5.730;2022-08-01T10:20:20;7.28;;;1.00;;
71496;SDS011;59317;53.218;5.730;2022-08-01T10:22:46;4.38;;;1.00;;
71496;SDS011;59317;53.218;5.730;2022-08-01T10:25:12;7.75;;;1.05;;
71496;SDS011;59317;53.218;5.730;2022-08-01T10:27:42;5.78;;;0.80;;
71496;SDS011;59317;53.218;5.730;2022-08-01T10:30:10;7.97;;;1.00;;
71496;SDS011;59317;53.218;5.730;2022-08-01T10:32:37;5.10;;;0.65;;
71496;SDS011;59317;53.218;5.730;2022-08-01T10:35:04;7.13;;;0.95;;
71496;SDS011;59317;53.218;5.730;2022-08-01T10:37:30;8.07;;;1.10;;
71496;SDS011;59317;53.218;5.730;2022-08-01T10:39:58;6.05;;;0.73;;
71496;SDS011;59317;53.218;5.730;2022-08-01T10:42:24;8.63;;;1.10;;
71496;SDS011;59317;53.218;5.730;2022-08-01T10:44:50;7.53;;;0.97;;
71496;SDS011;59317;53.218;5.730;2022-08-01T10:47:18;7.00;;;1.00;;
71496;SDS011;59317;53.218;5.730;2022-08-01T10:50:04;8.07;;;0.95;;
71496;SDS011;59317;53.218;5.730;2022-08-01T10:52:31;8.30;;;0.98;;
71496;SDS011;59317;53.218;5.730;2022-08-01T10:55:04;6.38;;;0.80;;
71496;SDS011;59317;53.218;5.730;2022-08-01T10:57:48;9.82;;;1.13;;
71496;SDS011;59317;53.218;5.730;2022-08-01T11:00:18;6.73;;;0.80;;
71496;SDS011;59317;53.218;5.730;2022-08-01T11:02:56;8.38;;;1.05;;
71496;SDS011;59317;53.218;5.730;2022-08-01T11:05:22;8.98;;;1.33;;
71496;SDS011;59317;53.218;5.730;2022-08-01T11:07:52;7.63;;;1.08;;
71496;SDS011;59317;53.218;5.730;2022-08-01T11:10:25;7.03;;;1.00;;
71496;SDS011;59317;53.218;5.730;2022-08-01T11:12:53;7.30;;;1.30;;
71496;SDS011;59317;53.218;5.730;2022-08-01T11:15:20;7.53;;;1.00;;
71496;SDS011;59317;53.218;5.730;2022-08-01T11:17:52;7.63;;;1.10;;
71496;SDS011;59317;53.218;5.730;2022-08-01T11:20:26;7.63;;;0.95;;
71496;SDS011;59317;53.218;5.730;2022-08-01T11:30:44;5.85;;;0.77;;
71496;SDS011;59317;53.218;5.730;2022-08-01T11:33:10;6.37;;;0.77;;
71496;SDS011;59317;53.218;5.730;2022-08-01T11:35:37;6.43;;;0.95;;
71496;SDS011;59317;53.218;5.730;2022-08-01T11:41:09;6.40;;;0.80;;
71496;SDS011;59317;53.218;5.730;2022-08-01T11:43:35;8.35;;;1.00;;
71496;SDS011;59317;53.218;5.730;2022-08-01T11:46:01;6.22;;;0.85;;
71496;SDS011;59317;53.218;5.730;2022-08-01T11:48:27;8.68;;;1.15;;
71496;SDS011;59317;53.218;5.730;2022-08-01T11:50:56;5.07;;;0.60;;
71496;SDS011;59317;53.218;5.730;2022-08-01T11:53:23;7.47;;;1.00;;
71496;SDS011;59317;53.218;5.730;2022-08-01T11:55:49;6.27;;;0.77;;
71496;SDS011;59317;53.218;5.730;2022-08-01T11:58:19;6.60;;;0.80;;
71496;SDS011;59317;53.218;5.730;2022-08-01T12:00:56;5.73;;;0.83;;
71496;SDS011;59317;53.218;5.730;2022-08-01T12:03:26;7.03;;;0.88;;
71496;SDS011;59317;53.218;5.730;2022-08-01T12:05:52;8.27;;;1.10;;
71496;SDS011;59317;53.218;5.730;2022-08-01T12:08:28;6.38;;;0.85;;
71496;SDS011;59317;53.218;5.730;2022-08-01T12:10:54;6.13;;;0.90;;
71496;SDS011;59317;53.218;5.730;2022-08-01T12:13:21;6.40;;;0.90;;
71496;SDS011;59317;53.218;5.730;2022-08-01T12:15:47;4.45;;;0.68;;
71496;SDS011;59317;53.218;5.730;2022-08-01T12:18:15;5.35;;;1.00;;
71496;SDS011;59317;53.218;5.730;2022-08-01T12:20:42;6.15;;;0.90;;
71496;SDS011;59317;53.218;5.730;2022-08-01T12:23:09;6.80;;;1.10;;
71496;SDS011;59317;53.218;5.730;2022-08-01T12:25:36;10.13;;;0.93;;
71496;SDS011;59317;53.218;5.730;2022-08-01T12:28:05;6.22;;;0.80;;
71496;SDS011;59317;53.218;5.730;2022-08-01T12:30:31;5.53;;;0.73;;
71496;SDS011;59317;53.218;5.730;2022-08-01T12:33:00;4.80;;;0.70;;
71496;SDS011;59317;53.218;5.730;2022-08-01T12:35:26;6.13;;;0.80;;
71496;SDS011;59317;53.218;5.730;2022-08-01T12:37:53;7.13;;;0.85;;
71496;SDS011;59317;53.218;5.730;2022-08-01T12:40:21;6.68;;;1.23;;
71496;SDS011;59317;53.218;5.730;2022-08-01T12:42:48;6.93;;;0.90;;
71496;SDS011;59317;53.218;5.730;2022-08-01T12:45:24;5.00;;;0.82;;
71496;SDS011;59317;53.218;5.730;2022-08-01T12:47:51;6.45;;;0.95;;
71496;SDS011;59317;53.218;5.730;2022-08-01T12:50:19;8.82;;;1.23;;
71496;SDS011;59317;53.218;5.730;2022-08-01T12:52:46;5.57;;;0.90;;
71496;SDS011;59317;53.218;5.730;2022-08-01T12:55:19;6.45;;;0.90;;
71496;SDS011;59317;53.218;5.730;2022-08-01T12:57:49;8.95;;;1.40;;
71496;SDS011;59317;53.218;5.730;2022-08-01T13:02:42;5.30;;;0.70;;
71496;SDS011;59317;53.218;5.730;2022-08-01T13:05:09;5.45;;;0.98;;
71496;SDS011;59317;53.218;5.730;2022-08-01T13:07:42;7.60;;;0.80;;
71496;SDS011;59317;53.218;5.730;2022-08-01T13:10:08;7.00;;;0.90;;
71496;SDS011;59317;53.218;5.730;2022-08-01T13:12:35;7.53;;;1.10;;
71496;SDS011;59317;53.218;5.730;2022-08-01T13:15:17;6.35;;;1.05;;
71496;SDS011;59317;53.218;5.730;2022-08-01T13:17:43;6.45;;;1.00;;
71496;SDS011;59317;53.218;5.730;2022-08-01T13:20:10;6.68;;;1.00;;
71496;SDS011;59317;53.218;5.730;2022-08-01T13:22:46;7.70;;;1.05;;
71496;SDS011;59317;53.218;5.730;2022-08-01T13:25:12;4.97;;;0.90;;
71496;SDS011;59317;53.218;5.730;2022-08-01T13:27:39;6.55;;;0.90;;
71496;SDS011;59317;53.218;5.730;2022-08-01T13:30:12;7.50;;;0.90;;
71496;SDS011;59317;53.218;5.730;2022-08-01T13:32:38;5.27;;;0.90;;
71496;SDS011;59317;53.218;5.730;2022-08-01T13:35:05;7.93;;;1.00;;
71496;SDS011;59317;53.218;5.730;2022-08-01T13:37:32;5.18;;;0.90;;
71496;SDS011;59317;53.218;5.730;2022-08-01T13:39:58;8.77;;;1.08;;
71496;SDS011;59317;53.218;5.730;2022-08-01T13:42:24;7.32;;;0.90;;
71496;SDS011;59317;53.218;5.730;2022-08-01T13:44:50;7.35;;;1.20;;
71496;SDS011;59317;53.218;5.730;2022-08-01T13:47:16;5.50;;;0.80;;
71496;SDS011;59317;53.218;5.730;2022-08-01T13:49:42;6.22;;;1.10;;
71496;SDS011;59317;53.218;5.730;2022-08-01T13:52:08;6.70;;;1.00;;
71496;SDS011;59317;53.218;5.730;2022-08-01T13:54:35;6.85;;;1.00;;
71496;SDS011;59317;53.218;5.730;2022-08-01T13:57:01;7.28;;;0.95;;
71496;SDS011;59317;53.218;5.730;2022-08-01T13:59:27;6.07;;;0.90;;
71496;SDS011;59317;53.218;5.730;2022-08-01T14:01:53;7.13;;;1.07;;
71496;SDS011;59317;53.218;5.730;2022-08-01T14:04:19;8.73;;;1.00;;
71496;SDS011;59317;53.218;5.730;2022-08-01T14:06:46;8.37;;;1.10;;
71496;SDS011;59317;53.218;5.730;2022-08-01T14:09:12;7.23;;;0.97;;
71496;SDS011;59317;53.218;5.730;2022-08-01T14:11:38;7.45;;;1.00;;
71496;SDS011;59317;53.218;5.730;2022-08-01T14:14:04;8.90;;;1.23;;
71496;SDS011;59317;53.218;5.730;2022-08-01T14:16:30;5.80;;;0.80;;
71496;SDS011;59317;53.218;5.730;2022-08-01T14:18:56;5.95;;;0.88;;
71496;SDS011;59317;53.218;5.730;2022-08-01T14:21:22;8.70;;;1.05;;
71496;SDS011;59317;53.218;5.730;2022-08-01T14:23:48;6.05;;;1.30;;
71496;SDS011;59317;53.218;5.730;2022-08-01T14:26:14;5.35;;;0.93;;
71496;SDS011;59317;53.218;5.730;2022-08-01T14:28:40;7.32;;;1.15;;
71496;SDS011;59317;53.218;5.730;2022-08-01T14:31:06;7.07;;;1.00;;
71496;SDS011;59317;53.218;5.730;2022-08-01T14:33:32;6.45;;;0.80;;
71496;SDS011;59317;53.218;5.730;2022-08-01T14:35:58;6.88;;;0.82;;
71496;SDS011;59317;53.218;5.730;2022-08-01T14:38:24;7.38;;;1.33;;
71496;SDS011;59317;53.218;5.730;2022-08-01T14:40:50;5.75;;;1.00;;
71496;SDS011;59317;53.218;5.730;2022-08-01T14:43:17;6.15;;;0.93;;
71496;SDS011;59317;53.218;5.730;2022-08-01T14:45:43;7.95;;;1.02;;
71496;SDS011;59317;53.218;5.730;2022-08-01T14:48:09;6.20;;;1.08;;
71496;SDS011;59317;53.218;5.730;2022-08-01T14:50:36;6.85;;;0.90;;
71496;SDS011;59317;53.218;5.730;2022-08-01T14:53:02;6.03;;;1.00;;
71496;SDS011;59317;53.218;5.730;2022-08-01T14:55:28;7.00;;;1.10;;
71496;SDS011;59317;53.218;5.730;2022-08-01T14:57:54;6.18;;;0.80;;
71496;SDS011;59317;53.218;5.730;2022-08-01T15:00:20;6.72;;;0.82;;
71496;SDS011;59317;53.218;5.730;2022-08-01T15:02:46;6.15;;;0.90;;
71496;SDS011;59317;53.218;5.730;2022-08-01T15:05:12;8.17;;;1.20;;
71496;SDS011;59317;53.218;5.730;2022-08-01T15:07:38;7.83;;;1.07;;
71496;SDS011;59317;53.218;5.730;2022-08-01T15:10:04;6.67;;;0.80;;
71496;SDS011;59317;53.218;5.730;2022-08-01T15:12:31;7.60;;;1.10;;
71496;SDS011;59317;53.218;5.730;2022-08-01T15:14:57;9.07;;;1.13;;